< < Back
Terminal Aerodrome Forecast


Current Version              Previous Versions:   1  2  3  4  5  6  7  8  9  

Terminal Aerodrome Forecast

309
FTUS42 KMLB 251136
TAFDAB
TAF
KDAB 251136Z 2512/2612 00000KT P6SM FEW035 BKN250
     FM251500 03006KT P6SM SCT025 SCT250
     FM251800 06008KT P6SM VCSH BKN035
     FM252100 09008KT P6SM SCT030 BKN250
     FM260000 VRB03KT P6SM FEW050 BKN250=

Latest METAR

956
SAUS80 KWBC 260300
MTRDAB
METAR KDAB 260253Z 00000KT 10SM FEW023 FEW045 24/23 A3002 RMK AO2 SLP165
T02440228 50011


USA.gov is the U.S. government's official web portal to all federal, state and local government web resources and services.